sensor_id;sensor_type;location;lat;lon;timestamp;temperature;humidity
9973;DHT22;5027;53.560;10.062;2023-02-16T00:01:26;9.30;99.90
9973;DHT22;5027;53.560;10.062;2023-02-16T00:03:54;9.30;99.90
9973;DHT22;5027;53.560;10.062;2023-02-16T00:06:22;9.30;99.90
9973;DHT22;5027;53.560;10.062;2023-02-16T00:08:51;9.20;99.90
9973;DHT22;5027;53.560;10.062;2023-02-16T00:11:45;9.20;99.90
9973;DHT22;5027;53.560;10.062;2023-02-16T00:14:33;9.20;99.90
9973;DHT22;5027;53.560;10.062;2023-02-16T00:17:00;9.20;99.90
9973;DHT22;5027;53.560;10.062;2023-02-16T00:19:29;9.20;99.90
9973;DHT22;5027;53.560;10.062;2023-02-16T00:21:58;9.20;99.90
9973;DHT22;5027;53.560;10.062;2023-02-16T00:24:26;9.20;99.90
9973;DHT22;5027;53.560;10.062;2023-02-16T00:26:54;9.20;99.90
9973;DHT22;5027;53.560;10.062;2023-02-16T00:29:25;9.10;99.90
9973;DHT22;5027;53.560;10.062;2023-02-16T00:31:53;9.20;99.90
9973;DHT22;5027;53.560;10.062;2023-02-16T00:34:38;9.10;99.90
9973;DHT22;5027;53.560;10.062;2023-02-16T00:37:07;9.10;99.90
9973;DHT22;5027;53.560;10.062;2023-02-16T00:39:35;9.10;99.90
9973;DHT22;5027;53.560;10.062;2023-02-16T00:42:11;9.10;99.90
9973;DHT22;5027;53.560;10.062;2023-02-16T00:44:44;9.10;99.90
9973;DHT22;5027;53.560;10.062;2023-02-16T00:47:18;9.20;99.90
9973;DHT22;5027;53.560;10.062;2023-02-16T00:49:47;9.20;99.90
9973;DHT22;5027;53.560;10.062;2023-02-16T00:52:36;9.20;99.90
9973;DHT22;5027;53.560;10.062;2023-02-16T00:55:08;9.10;99.90
9973;DHT22;5027;53.560;10.062;2023-02-16T00:57:39;9.10;99.90
9973;DHT22;5027;53.560;10.062;2023-02-16T01:00:28;9.20;99.90
9973;DHT22;5027;53.560;10.062;2023-02-16T01:02:58;9.20;99.90
9973;DHT22;5027;53.560;10.062;2023-02-16T01:05:26;9.10;99.90
9973;DHT22;5027;53.560;10.062;2023-02-16T01:07:53;9.10;99.90
9973;DHT22;5027;53.560;10.062;2023-02-16T01:10:39;9.00;99.90
9973;DHT22;5027;53.560;10.062;2023-02-16T01:13:26;9.10;99.90
9973;DHT22;5027;53.560;10.062;2023-02-16T01:15:54;9.00;99.90
9973;DHT22;5027;53.560;10.062;2023-02-16T01:18:21;9.00;99.90
9973;DHT22;5027;53.560;10.062;2023-02-16T01:20:50;8.90;99.90
9973;DHT22;5027;53.560;10.062;2023-02-16T01:23:16;9.00;99.90
9973;DHT22;5027;53.560;10.062;2023-02-16T01:25:43;8.90;99.90
9973;DHT22;5027;53.560;10.062;2023-02-16T01:28:19;8.90;99.90
9973;DHT22;5027;53.560;10.062;2023-02-16T01:30:47;8.90;99.90
9973;DHT22;5027;53.560;10.062;2023-02-16T01:33:14;8.90;99.90
9973;DHT22;5027;53.560;10.062;2023-02-16T01:35:41;8.90;99.90
9973;DHT22;5027;53.560;10.062;2023-02-16T01:38:19;9.00;99.90
9973;DHT22;5027;53.560;10.062;2023-02-16T01:43:51;9.20;99.90
9973;DHT22;5027;53.560;10.062;2023-02-16T01:49:14;9.10;99.90
9973;DHT22;5027;53.560;10.062;2023-02-16T01:54:35;9.00;99.90
9973;DHT22;5027;53.560;10.062;2023-02-16T01:57:16;9.00;99.90
9973;DHT22;5027;53.560;10.062;2023-02-16T02:02:22;8.90;99.90
9973;DHT22;5027;53.560;10.062;2023-02-16T02:04:52;8.90;99.90
9973;DHT22;5027;53.560;10.062;2023-02-16T02:08:03;8.90;99.90
9973;DHT22;5027;53.560;10.062;2023-02-16T02:11:00;8.90;99.90
9973;DHT22;5027;53.560;10.062;2023-02-16T02:13:49;8.90;99.90
9973;DHT22;5027;53.560;10.062;2023-02-16T02:16:21;8.90;99.90
9973;DHT22;5027;53.560;10.062;2023-02-16T02:18:49;8.90;99.90
9973;DHT22;5027;53.560;10.062;2023-02-16T02:21:54;8.90;99.90
9973;DHT22;5027;53.560;10.062;2023-02-16T02:25:13;8.90;99.90
9973;DHT22;5027;53.560;10.062;2023-02-16T02:27:56;9.00;99.90
9973;DHT22;5027;53.560;10.062;2023-02-16T02:36:14;8.90;99.90
9973;DHT22;5027;53.560;10.062;2023-02-16T02:42:00;8.80;99.90
9973;DHT22;5027;53.560;10.062;2023-02-16T02:44:43;8.90;99.90
9973;DHT22;5027;53.560;10.062;2023-02-16T02:47:11;9.00;99.90
9973;DHT22;5027;53.560;10.062;2023-02-16T02:49:38;8.90;99.90
9973;DHT22;5027;53.560;10.062;2023-02-16T02:52:08;8.90;99.90
9973;DHT22;5027;53.560;10.062;2023-02-16T02:54:37;8.90;99.90
9973;DHT22;5027;53.560;10.062;2023-02-16T02:57:41;8.90;99.90
9973;DHT22;5027;53.560;10.062;2023-02-16T03:00:39;9.00;99.90
9973;DHT22;5027;53.560;10.062;2023-02-16T03:03:27;9.00;99.90
9973;DHT22;5027;53.560;10.062;2023-02-16T03:06:12;9.10;99.90
9973;DHT22;5027;53.560;10.062;2023-02-16T03:08:43;9.20;99.90
9973;DHT22;5027;53.560;10.062;2023-02-16T03:11:14;9.20;99.90
9973;DHT22;5027;53.560;10.062;2023-02-16T03:16:40;9.20;99.90
9973;DHT22;5027;53.560;10.062;2023-02-16T03:19:10;9.20;99.90
9973;DHT22;5027;53.560;10.062;2023-02-16T03:21:56;9.20;99.90
9973;DHT22;5027;53.560;10.062;2023-02-16T03:24:42;9.20;99.90
9973;DHT22;5027;53.560;10.062;2023-02-16T03:27:36;9.30;99.90
9973;DHT22;5027;53.560;10.062;2023-02-16T03:30:23;9.30;99.90
9973;DHT22;5027;53.560;10.062;2023-02-16T03:32:51;9.30;99.90
9973;DHT22;5027;53.560;10.062;2023-02-16T03:35:18;9.20;99.90
9973;DHT22;5027;53.560;10.062;2023-02-16T03:37:45;9.10;99.90
9973;DHT22;5027;53.560;10.062;2023-02-16T03:40:14;9.10;99.90
9973;DHT22;5027;53.560;10.062;2023-02-16T03:43:00;9.20;99.90
9973;DHT22;5027;53.560;10.062;2023-02-16T03:45:27;9.10;99.90
9973;DHT22;5027;53.560;10.062;2023-02-16T03:47:54;9.10;99.90
9973;DHT22;5027;53.560;10.062;2023-02-16T03:50:21;9.10;99.90
9973;DHT22;5027;53.560;10.062;2023-02-16T03:52:48;9.20;99.90
9973;DHT22;5027;53.560;10.062;2023-02-16T03:55:15;9.20;99.90
9973;DHT22;5027;53.560;10.062;2023-02-16T03:57:41;9.10;99.90
9973;DHT22;5027;53.560;10.062;2023-02-16T04:00:09;9.10;99.90
9973;DHT22;5027;53.560;10.062;2023-02-16T04:02:39;9.10;99.90
9973;DHT22;5027;53.560;10.062;2023-02-16T04:05:05;9.20;99.90
9973;DHT22;5027;53.560;10.062;2023-02-16T04:07:32;9.20;99.90
9973;DHT22;5027;53.560;10.062;2023-02-16T04:09:59;9.30;99.90
9973;DHT22;5027;53.560;10.062;2023-02-16T04:12:25;9.30;99.90
9973;DHT22;5027;53.560;10.062;2023-02-16T04:15:04;9.30;99.90
9973;DHT22;5027;53.560;10.062;2023-02-16T04:17:30;9.30;99.90
9973;DHT22;5027;53.560;10.062;2023-02-16T04:19:57;9.20;99.90
9973;DHT22;5027;53.560;10.062;2023-02-16T04:22:24;9.30;99.90
9973;DHT22;5027;53.560;10.062;2023-02-16T04:24:50;9.20;99.90
9973;DHT22;5027;53.560;10.062;2023-02-16T04:27:17;9.30;99.90
9973;DHT22;5027;53.560;10.062;2023-02-16T04:29:44;9.30;99.90
9973;DHT22;5027;53.560;10.062;2023-02-16T04:32:11;9.20;99.90
9973;DHT22;5027;53.560;10.062;2023-02-16T04:34:37;9.20;99.90
9973;DHT22;5027;53.560;10.062;2023-02-16T04:37:04;9.20;99.90
9973;DHT22;5027;53.560;10.062;2023-02-16T04:39:31;9.20;99.90
9973;DHT22;5027;53.560;10.062;2023-02-16T04:41:58;9.20;99.90
9973;DHT22;5027;53.560;10.062;2023-02-16T04:44:25;9.30;99.90
9973;DHT22;5027;53.560;10.062;2023-02-16T04:46:51;9.30;99.90
9973;DHT22;5027;53.560;10.062;2023-02-16T04:49:18;9.30;99.90
9973;DHT22;5027;53.560;10.062;2023-02-16T04:51:44;9.30;99.90
9973;DHT22;5027;53.560;10.062;2023-02-16T04:54:11;9.30;99.90
9973;DHT22;5027;53.560;10.062;2023-02-16T04:56:38;9.20;99.90
9973;DHT22;5027;53.560;10.062;2023-02-16T04:59:04;9.20;99.90
9973;DHT22;5027;53.560;10.062;2023-02-16T05:01:31;9.20;99.90
9973;DHT22;5027;53.560;10.062;2023-02-16T05:03:58;9.20;99.90
9973;DHT22;5027;53.560;10.062;2023-02-16T05:06:24;9.20;99.90
9973;DHT22;5027;53.560;10.062;2023-02-16T05:08:51;9.20;99.90
9973;DHT22;5027;53.560;10.062;2023-02-16T05:11:18;9.30;99.90
9973;DHT22;5027;53.560;10.062;2023-02-16T05:14:03;9.30;99.90
9973;DHT22;5027;53.560;10.062;2023-02-16T05:16:48;9.30;99.90
9973;DHT22;5027;53.560;10.062;2023-02-16T05:19:15;9.30;99.90
9973;DHT22;5027;53.560;10.062;2023-02-16T05:21:44;9.30;99.90
9973;DHT22;5027;53.560;10.062;2023-02-16T05:24:11;9.30;99.90
9973;DHT22;5027;53.560;10.062;2023-02-16T05:26:38;9.20;99.90
9973;DHT22;5027;53.560;10.062;2023-02-16T05:29:05;9.30;99.90
9973;DHT22;5027;53.560;10.062;2023-02-16T05:31:32;9.30;99.90
9973;DHT22;5027;53.560;10.062;2023-02-16T05:33:59;9.20;99.90
9973;DHT22;5027;53.560;10.062;2023-02-16T05:36:26;9.20;99.90
9973;DHT22;5027;53.560;10.062;2023-02-16T05:38:52;9.20;99.90
9973;DHT22;5027;53.560;10.062;2023-02-16T05:41:19;9.10;99.90
9973;DHT22;5027;53.560;10.062;2023-02-16T05:43:57;9.10;99.90
9973;DHT22;5027;53.560;10.062;2023-02-16T05:46:25;9.20;99.90
9973;DHT22;5027;53.560;10.062;2023-02-16T05:48:53;9.20;99.90
9973;DHT22;5027;53.560;10.062;2023-02-16T05:51:20;9.20;99.90
9973;DHT22;5027;53.560;10.062;2023-02-16T05:53:47;9.20;99.90
9973;DHT22;5027;53.560;10.062;2023-02-16T05:56:14;9.30;99.90
9973;DHT22;5027;53.560;10.062;2023-02-16T05:58:41;9.20;99.90
9973;DHT22;5027;53.560;10.062;2023-02-16T06:01:07;9.20;99.90
9973;DHT22;5027;53.560;10.062;2023-02-16T06:03:34;9.30;99.90
9973;DHT22;5027;53.560;10.062;2023-02-16T06:06:03;9.30;99.90
9973;DHT22;5027;53.560;10.062;2023-02-16T06:08:30;9.30;99.90
9973;DHT22;5027;53.560;10.062;2023-02-16T06:10:58;9.40;99.90
9973;DHT22;5027;53.560;10.062;2023-02-16T06:13:25;9.40;99.90
9973;DHT22;5027;53.560;10.062;2023-02-16T06:15:56;9.40;99.90
9973;DHT22;5027;53.560;10.062;2023-02-16T06:18:23;9.40;99.90
9973;DHT22;5027;53.560;10.062;2023-02-16T06:20:50;9.30;99.90
9973;DHT22;5027;53.560;10.062;2023-02-16T06:23:17;9.40;99.90
9973;DHT22;5027;53.560;10.062;2023-02-16T06:25:48;9.40;99.90
9973;DHT22;5027;53.560;10.062;2023-02-16T06:28:14;9.40;99.90
9973;DHT22;5027;53.560;10.062;2023-02-16T06:30:41;9.40;99.90
9973;DHT22;5027;53.560;10.062;2023-02-16T06:33:08;9.50;99.90
9973;DHT22;5027;53.560;10.062;2023-02-16T06:35:35;9.50;99.90
9973;DHT22;5027;53.560;10.062;2023-02-16T06:38:01;9.50;99.90
9973;DHT22;5027;53.560;10.062;2023-02-16T06:40:28;9.50;99.90
9973;DHT22;5027;53.560;10.062;2023-02-16T06:42:54;9.40;99.90
9973;DHT22;5027;53.560;10.062;2023-02-16T06:45:21;9.50;99.90
9973;DHT22;5027;53.560;10.062;2023-02-16T06:47:48;9.50;99.90
9973;DHT22;5027;53.560;10.062;2023-02-16T06:50:14;9.50;99.90
9973;DHT22;5027;53.560;10.062;2023-02-16T06:52:43;9.50;99.90
9973;DHT22;5027;53.560;10.062;2023-02-16T06:55:09;9.50;99.90
9973;DHT22;5027;53.560;10.062;2023-02-16T06:57:36;9.50;99.90
9973;DHT22;5027;53.560;10.062;2023-02-16T07:00:04;9.50;99.90
9973;DHT22;5027;53.560;10.062;2023-02-16T07:02:32;9.50;99.90
9973;DHT22;5027;53.560;10.062;2023-02-16T07:05:00;9.50;99.90
9973;DHT22;5027;53.560;10.062;2023-02-16T07:07:26;9.50;99.90
9973;DHT22;5027;53.560;10.062;2023-02-16T07:09:53;9.60;99.90
9973;DHT22;5027;53.560;10.062;2023-02-16T07:12:20;9.50;99.90
9973;DHT22;5027;53.560;10.062;2023-02-16T07:14:46;9.50;99.90
9973;DHT22;5027;53.560;10.062;2023-02-16T07:17:13;9.50;99.90
9973;DHT22;5027;53.560;10.062;2023-02-16T07:19:40;9.60;99.90
9973;DHT22;5027;53.560;10.062;2023-02-16T07:22:07;9.60;99.90
9973;DHT22;5027;53.560;10.062;2023-02-16T07:24:33;9.50;99.90
9973;DHT22;5027;53.560;10.062;2023-02-16T07:27:00;9.40;99.90
9973;DHT22;5027;53.560;10.062;2023-02-16T07:29:27;9.40;99.90
9973;DHT22;5027;53.560;10.062;2023-02-16T07:31:54;9.40;99.90
9973;DHT22;5027;53.560;10.062;2023-02-16T07:34:22;9.50;99.90
9973;DHT22;5027;53.560;10.062;2023-02-16T07:36:49;9.60;99.90
9973;DHT22;5027;53.560;10.062;2023-02-16T07:39:15;9.60;99.90
9973;DHT22;5027;53.560;10.062;2023-02-16T07:41:42;9.70;99.90
9973;DHT22;5027;53.560;10.062;2023-02-16T07:44:09;9.70;99.90
9973;DHT22;5027;53.560;10.062;2023-02-16T07:46:35;9.70;99.90
9973;DHT22;5027;53.560;10.062;2023-02-16T07:49:02;9.80;99.90
9973;DHT22;5027;53.560;10.062;2023-02-16T07:51:30;9.80;99.90
9973;DHT22;5027;53.560;10.062;2023-02-16T07:53:58;9.80;99.90
9973;DHT22;5027;53.560;10.062;2023-02-16T07:56:27;9.80;99.90
9973;DHT22;5027;53.560;10.062;2023-02-16T07:58:55;9.80;99.90
9973;DHT22;5027;53.560;10.062;2023-02-16T08:01:23;9.80;99.90
9973;DHT22;5027;53.560;10.062;2023-02-16T08:03:51;9.90;99.90
9973;DHT22;5027;53.560;10.062;2023-02-16T08:06:18;9.80;99.90
9973;DHT22;5027;53.560;10.062;2023-02-16T08:08:45;9.80;99.90
9973;DHT22;5027;53.560;10.062;2023-02-16T08:11:17;9.90;99.90
9973;DHT22;5027;53.560;10.062;2023-02-16T08:13:44;9.90;99.90
9973;DHT22;5027;53.560;10.062;2023-02-16T08:16:16;9.90;99.90
9973;DHT22;5027;53.560;10.062;2023-02-16T08:18:43;9.90;99.90
9973;DHT22;5027;53.560;10.062;2023-02-16T08:21:16;9.90;99.90
9973;DHT22;5027;53.560;10.062;2023-02-16T08:23:45;10.00;99.90
9973;DHT22;5027;53.560;10.062;2023-02-16T08:26:16;10.00;99.90
9973;DHT22;5027;53.560;10.062;2023-02-16T08:28:44;9.90;99.90
9973;DHT22;5027;53.560;10.062;2023-02-16T08:31:19;9.90;99.90
9973;DHT22;5027;53.560;10.062;2023-02-16T08:33:46;9.80;99.90
9973;DHT22;5027;53.560;10.062;2023-02-16T08:36:21;9.90;99.90
9973;DHT22;5027;53.560;10.062;2023-02-16T08:38:50;9.90;99.90
9973;DHT22;5027;53.560;10.062;2023-02-16T08:41:19;10.00;99.90
9973;DHT22;5027;53.560;10.062;2023-02-16T08:43:46;10.00;99.90
9973;DHT22;5027;53.560;10.062;2023-02-16T08:46:14;10.00;99.90
9973;DHT22;5027;53.560;10.062;2023-02-16T08:48:41;10.00;99.90
9973;DHT22;5027;53.560;10.062;2023-02-16T08:51:18;9.90;99.90
9973;DHT22;5027;53.560;10.062;2023-02-16T08:53:45;9.90;99.90
9973;DHT22;5027;53.560;10.062;2023-02-16T08:56:13;10.00;99.90
9973;DHT22;5027;53.560;10.062;2023-02-16T08:58:40;10.00;99.90
9973;DHT22;5027;53.560;10.062;2023-02-16T09:01:07;10.00;99.90
9973;DHT22;5027;53.560;10.062;2023-02-16T09:03:35;10.00;99.90
9973;DHT22;5027;53.560;10.062;2023-02-16T09:06:04;10.10;99.90
9973;DHT22;5027;53.560;10.062;2023-02-16T09:08:31;10.00;99.90
9973;DHT22;5027;53.560;10.062;2023-02-16T09:11:06;10.10;99.90
9973;DHT22;5027;53.560;10.062;2023-02-16T09:13:34;10.10;99.90
9973;DHT22;5027;53.560;10.062;2023-02-16T09:16:06;10.10;99.90
9973;DHT22;5027;53.560;10.062;2023-02-16T09:18:33;10.30;99.90
9973;DHT22;5027;53.560;10.062;2023-02-16T09:21:03;10.40;99.90
9973;DHT22;5027;53.560;10.062;2023-02-16T09:23:36;10.40;99.90
9973;DHT22;5027;53.560;10.062;2023-02-16T09:26:03;10.40;99.90
9973;DHT22;5027;53.560;10.062;2023-02-16T09:28:34;10.30;99.90
9973;DHT22;5027;53.560;10.062;2023-02-16T09:31:08;10.20;99.90
9973;DHT22;5027;53.560;10.062;2023-02-16T09:33:36;10.30;99.90
9973;DHT22;5027;53.560;10.062;2023-02-16T09:36:04;10.30;99.90
9973;DHT22;5027;53.560;10.062;2023-02-16T09:38:33;10.20;99.90
9973;DHT22;5027;53.560;10.062;2023-02-16T09:42:22;10.20;99.90
9973;DHT22;5027;53.560;10.062;2023-02-16T09:44:40;10.20;99.90
9973;DHT22;5027;53.560;10.062;2023-02-16T09:47:21;10.20;99.90
9973;DHT22;5027;53.560;10.062;2023-02-16T09:49:50;10.10;99.90
9973;DHT22;5027;53.560;10.062;2023-02-16T09:52:34;10.20;99.90
9973;DHT22;5027;53.560;10.062;2023-02-16T09:55:06;10.00;99.90
9973;DHT22;5027;53.560;10.062;2023-02-16T09:57:41;10.10;99.90
9973;DHT22;5027;53.560;10.062;2023-02-16T10:03:27;9.90;99.90
9973;DHT22;5027;53.560;10.062;2023-02-16T10:08:44;10.10;99.90
9973;DHT22;5027;53.560;10.062;2023-02-16T10:16:44;10.10;99.90
9973;DHT22;5027;53.560;10.062;2023-02-16T10:19:32;10.10;99.90
9973;DHT22;5027;53.560;10.062;2023-02-16T10:22:06;10.10;99.90
9973;DHT22;5027;53.560;10.062;2023-02-16T10:24:44;10.20;99.90
9973;DHT22;5027;53.560;10.062;2023-02-16T10:27:15;10.20;99.90
9973;DHT22;5027;53.560;10.062;2023-02-16T10:29:42;10.40;99.90
9973;DHT22;5027;53.560;10.062;2023-02-16T10:32:30;10.40;99.90
9973;DHT22;5027;53.560;10.062;2023-02-16T10:35:10;10.40;99.90
9973;DHT22;5027;53.560;10.062;2023-02-16T10:38:01;10.30;99.90
9973;DHT22;5027;53.560;10.062;2023-02-16T10:43:17;10.20;99.90
9973;DHT22;5027;53.560;10.062;2023-02-16T10:45:53;10.30;99.90
9973;DHT22;5027;53.560;10.062;2023-02-16T10:48:22;10.30;99.90
9973;DHT22;5027;53.560;10.062;2023-02-16T10:51:07;10.30;99.90
9973;DHT22;5027;53.560;10.062;2023-02-16T10:53:51;10.30;99.90
9973;DHT22;5027;53.560;10.062;2023-02-16T10:58:51;10.20;99.90
9973;DHT22;5027;53.560;10.062;2023-02-16T11:01:19;10.20;99.90
9973;DHT22;5027;53.560;10.062;2023-02-16T11:03:49;10.20;99.90
9973;DHT22;5027;53.560;10.062;2023-02-16T11:06:22;10.20;99.90
9973;DHT22;5027;53.560;10.062;2023-02-16T11:08:56;10.30;99.90
9973;DHT22;5027;53.560;10.062;2023-02-16T11:11:26;10.30;99.90
9973;DHT22;5027;53.560;10.062;2023-02-16T11:14:01;10.40;99.90
9973;DHT22;5027;53.560;10.062;2023-02-16T11:16:29;10.40;99.90
9973;DHT22;5027;53.560;10.062;2023-02-16T11:19:00;10.40;99.90
9973;DHT22;5027;53.560;10.062;2023-02-16T11:21:44;10.40;99.90
9973;DHT22;5027;53.560;10.062;2023-02-16T11:24:26;10.40;99.90
9973;DHT22;5027;53.560;10.062;2023-02-16T11:27:04;10.50;99.90
9973;DHT22;5027;53.560;10.062;2023-02-16T11:29:33;10.30;99.90
9973;DHT22;5027;53.560;10.062;2023-02-16T11:32:07;10.40;99.90
9973;DHT22;5027;53.560;10.062;2023-02-16T11:34:40;10.40;99.90
9973;DHT22;5027;53.560;10.062;2023-02-16T11:37:26;10.40;99.90
9973;DHT22;5027;53.560;10.062;2023-02-16T11:39:57;10.60;99.90
9973;DHT22;5027;53.560;10.062;2023-02-16T11:42:39;10.40;99.90
9973;DHT22;5027;53.560;10.062;2023-02-16T11:47:54;10.60;99.90
9973;DHT22;5027;53.560;10.062;2023-02-16T11:50:30;10.70;99.90
9973;DHT22;5027;53.560;10.062;2023-02-16T11:53:14;10.70;99.90
9973;DHT22;5027;53.560;10.062;2023-02-16T11:55:47;10.60;99.90
9973;DHT22;5027;53.560;10.062;2023-02-16T11:58:25;10.70;99.90
9973;DHT22;5027;53.560;10.062;2023-02-16T12:06:47;10.60;99.90
9973;DHT22;5027;53.560;10.062;2023-02-16T12:12:28;10.60;99.90
9973;DHT22;5027;53.560;10.062;2023-02-16T12:18:02;10.60;99.90
9973;DHT22;5027;53.560;10.062;2023-02-16T12:21:13;10.60;99.90
9973;DHT22;5027;53.560;10.062;2023-02-16T12:29:21;10.60;99.90
9973;DHT22;5027;53.560;10.062;2023-02-16T12:35:17;10.60;99.90
9973;DHT22;5027;53.560;10.062;2023-02-16T12:38:19;11.20;99.90
9973;DHT22;5027;53.560;10.062;2023-02-16T12:41:17;11.00;99.90
9973;DHT22;5027;53.560;10.062;2023-02-16T12:43:59;10.90;99.90
9973;DHT22;5027;53.560;10.062;2023-02-16T12:46:34;10.80;99.90
9973;DHT22;5027;53.560;10.062;2023-02-16T12:51:44;10.80;99.90
9973;DHT22;5027;53.560;10.062;2023-02-16T12:57:06;10.70;99.90
9973;DHT22;5027;53.560;10.062;2023-02-16T12:59:38;10.60;99.90
9973;DHT22;5027;53.560;10.062;2023-02-16T13:05:03;10.70;99.90
9973;DHT22;5027;53.560;10.062;2023-02-16T13:07:45;10.80;99.90
9973;DHT22;5027;53.560;10.062;2023-02-16T13:12:59;10.70;99.90
9973;DHT22;5027;53.560;10.062;2023-02-16T13:15:35;10.70;99.90
9973;DHT22;5027;53.560;10.062;2023-02-16T13:20:32;10.80;99.90
9973;DHT22;5027;53.560;10.062;2023-02-16T13:23:25;10.90;99.90
9973;DHT22;5027;53.560;10.062;2023-02-16T13:34:38;11.00;99.90
9973;DHT22;5027;53.560;10.062;2023-02-16T13:37:24;11.00;99.90
9973;DHT22;5027;53.560;10.062;2023-02-16T13:40:28;11.00;99.90
9973;DHT22;5027;53.560;10.062;2023-02-16T13:45:45;10.90;99.90
9973;DHT22;5027;53.560;10.062;2023-02-16T13:48:20;10.90;99.90
9973;DHT22;5027;53.560;10.062;2023-02-16T13:51:01;11.00;99.90
9973;DHT22;5027;53.560;10.062;2023-02-16T13:53:36;11.00;99.90
9973;DHT22;5027;53.560;10.062;2023-02-16T13:56:20;10.90;99.90
9973;DHT22;5027;53.560;10.062;2023-02-16T13:58:50;10.90;99.90
9973;DHT22;5027;53.560;10.062;2023-02-16T14:01:37;11.00;99.90
9973;DHT22;5027;53.560;10.062;2023-02-16T14:12:14;11.10;99.90
9973;DHT22;5027;53.560;10.062;2023-02-16T14:20:11;10.90;99.90
9973;DHT22;5027;53.560;10.062;2023-02-16T14:22:55;10.90;99.90
9973;DHT22;5027;53.560;10.062;2023-02-16T14:25:32;10.90;99.90
9973;DHT22;5027;53.560;10.062;2023-02-16T14:30:54;11.00;99.90
9973;DHT22;5027;53.560;10.062;2023-02-16T14:33:39;11.00;99.90
9973;DHT22;5027;53.560;10.062;2023-02-16T14:36:14;11.10;99.90
9973;DHT22;5027;53.560;10.062;2023-02-16T14:38:45;11.10;99.90
9973;DHT22;5027;53.560;10.062;2023-02-16T14:43:57;11.00;99.90
9973;DHT22;5027;53.560;10.062;2023-02-16T14:49:31;11.00;99.90
9973;DHT22;5027;53.560;10.062;2023-02-16T14:52:41;11.00;99.90
9973;DHT22;5027;53.560;10.062;2023-02-16T15:00:45;11.00;99.90
9973;DHT22;5027;53.560;10.062;2023-02-16T15:03:18;11.00;99.90
9973;DHT22;5027;53.560;10.062;2023-02-16T15:05:59;11.10;99.90
9973;DHT22;5027;53.560;10.062;2023-02-16T15:08:30;11.10;99.90
9973;DHT22;5027;53.560;10.062;2023-02-16T15:13:38;11.00;99.90
9973;DHT22;5027;53.560;10.062;2023-02-16T15:16:06;11.00;99.90
9973;DHT22;5027;53.560;10.062;2023-02-16T15:18:41;11.10;99.90
9973;DHT22;5027;53.560;10.062;2023-02-16T15:21:27;11.00;99.90
9973;DHT22;5027;53.560;10.062;2023-02-16T15:24:00;11.10;99.90
9973;DHT22;5027;53.560;10.062;2023-02-16T15:26:32;11.00;99.90
9973;DHT22;5027;53.560;10.062;2023-02-16T15:31:45;11.10;99.90
9973;DHT22;5027;53.560;10.062;2023-02-16T15:34:14;11.10;99.90
9973;DHT22;5027;53.560;10.062;2023-02-16T15:36:51;11.10;99.90
9973;DHT22;5027;53.560;10.062;2023-02-16T15:39:29;11.10;99.90
9973;DHT22;5027;53.560;10.062;2023-02-16T15:42:22;11.10;99.90
9973;DHT22;5027;53.560;10.062;2023-02-16T15:44:52;11.00;99.90
9973;DHT22;5027;53.560;10.062;2023-02-16T15:47:24;11.10;99.90
9973;DHT22;5027;53.560;10.062;2023-02-16T15:49:52;11.10;99.90
9973;DHT22;5027;53.560;10.062;2023-02-16T15:52:32;11.00;99.90
9973;DHT22;5027;53.560;10.062;2023-02-16T15:55:00;11.00;99.90
9973;DHT22;5027;53.560;10.062;2023-02-16T15:57:33;11.00;99.90
9973;DHT22;5027;53.560;10.062;2023-02-16T16:00:16;11.00;99.90
9973;DHT22;5027;53.560;10.062;2023-02-16T16:02:47;11.00;99.90
9973;DHT22;5027;53.560;10.062;2023-02-16T16:05:27;11.00;99.90
9973;DHT22;5027;53.560;10.062;2023-02-16T16:07:56;10.90;99.90
9973;DHT22;5027;53.560;10.062;2023-02-16T16:10:33;10.90;99.90
9973;DHT22;5027;53.560;10.062;2023-02-16T16:13:10;10.90;99.90
9973;DHT22;5027;53.560;10.062;2023-02-16T16:15:44;10.90;99.90
9973;DHT22;5027;53.560;10.062;2023-02-16T16:21:23;10.90;99.90
9973;DHT22;5027;53.560;10.062;2023-02-16T16:24:05;10.90;99.90
9973;DHT22;5027;53.560;10.062;2023-02-16T16:29:41;10.90;99.90
9973;DHT22;5027;53.560;10.062;2023-02-16T16:32:19;10.90;99.90
9973;DHT22;5027;53.560;10.062;2023-02-16T16:34:47;10.80;99.90
9973;DHT22;5027;53.560;10.062;2023-02-16T16:37:33;10.80;99.90
9973;DHT22;5027;53.560;10.062;2023-02-16T16:45:44;10.80;99.90
9973;DHT22;5027;53.560;10.062;2023-02-16T16:48:33;10.80;99.90
9973;DHT22;5027;53.560;10.062;2023-02-16T16:56:17;10.80;99.90
9973;DHT22;5027;53.560;10.062;2023-02-16T16:58:49;10.80;99.90
9973;DHT22;5027;53.560;10.062;2023-02-16T17:01:17;10.80;99.90
9973;DHT22;5027;53.560;10.062;2023-02-16T17:03:44;10.80;99.90
9973;DHT22;5027;53.560;10.062;2023-02-16T17:06:11;10.80;99.90
9973;DHT22;5027;53.560;10.062;2023-02-16T17:08:39;10.80;99.90
9973;DHT22;5027;53.560;10.062;2023-02-16T17:11:31;10.80;99.90
9973;DHT22;5027;53.560;10.062;2023-02-16T17:14:08;10.80;99.90
9973;DHT22;5027;53.560;10.062;2023-02-16T17:16:38;10.80;99.90
9973;DHT22;5027;53.560;10.062;2023-02-16T17:19:06;10.80;99.90
9973;DHT22;5027;53.560;10.062;2023-02-16T17:21:32;10.80;99.90
9973;DHT22;5027;53.560;10.062;2023-02-16T17:23:59;10.70;99.90
9973;DHT22;5027;53.560;10.062;2023-02-16T17:26:26;10.70;99.90
9973;DHT22;5027;53.560;10.062;2023-02-16T17:28:53;10.70;99.90
9973;DHT22;5027;53.560;10.062;2023-02-16T17:31:19;10.80;99.90
9973;DHT22;5027;53.560;10.062;2023-02-16T17:33:46;10.80;99.90
9973;DHT22;5027;53.560;10.062;2023-02-16T17:36:14;10.80;99.90
9973;DHT22;5027;53.560;10.062;2023-02-16T17:38:42;10.80;99.90
9973;DHT22;5027;53.560;10.062;2023-02-16T17:41:20;10.80;99.90
9973;DHT22;5027;53.560;10.062;2023-02-16T17:43:48;10.90;99.90
9973;DHT22;5027;53.560;10.062;2023-02-16T17:46:15;10.80;99.90
9973;DHT22;5027;53.560;10.062;2023-02-16T17:48:42;10.80;99.90
9973;DHT22;5027;53.560;10.062;2023-02-16T17:51:15;10.80;99.90
9973;DHT22;5027;53.560;10.062;2023-02-16T17:53:43;10.80;99.90
9973;DHT22;5027;53.560;10.062;2023-02-16T17:56:12;10.80;99.90
9973;DHT22;5027;53.560;10.062;2023-02-16T17:58:39;10.90;99.90
9973;DHT22;5027;53.560;10.062;2023-02-16T18:01:06;10.90;99.90
9973;DHT22;5027;53.560;10.062;2023-02-16T18:03:35;10.80;99.90
9973;DHT22;5027;53.560;10.062;2023-02-16T18:06:01;10.80;99.90
9973;DHT22;5027;53.560;10.062;2023-02-16T18:08:28;10.90;99.90
9973;DHT22;5027;53.560;10.062;2023-02-16T18:10:55;10.90;99.90
9973;DHT22;5027;53.560;10.062;2023-02-16T18:13:28;10.80;99.90
9973;DHT22;5027;53.560;10.062;2023-02-16T18:15:55;10.80;99.90
9973;DHT22;5027;53.560;10.062;2023-02-16T18:18:23;10.70;99.90
9973;DHT22;5027;53.560;10.062;2023-02-16T18:20:49;10.70;99.90
9973;DHT22;5027;53.560;10.062;2023-02-16T18:23:16;10.70;99.90
9973;DHT22;5027;53.560;10.062;2023-02-16T18:25:42;10.70;99.90
9973;DHT22;5027;53.560;10.062;2023-02-16T18:28:13;10.70;99.90
9973;DHT22;5027;53.560;10.062;2023-02-16T18:30:40;10.80;99.90
9973;DHT22;5027;53.560;10.062;2023-02-16T18:33:07;10.80;99.90
9973;DHT22;5027;53.560;10.062;2023-02-16T18:35:34;10.70;99.90
9973;DHT22;5027;53.560;10.062;2023-02-16T18:38:02;10.70;99.90
9973;DHT22;5027;53.560;10.062;2023-02-16T18:40:29;10.70;99.90
9973;DHT22;5027;53.560;10.062;2023-02-16T18:42:55;10.70;99.90
9973;DHT22;5027;53.560;10.062;2023-02-16T18:45:24;10.60;99.90
9973;DHT22;5027;53.560;10.062;2023-02-16T18:47:51;10.60;99.90